7073彩票注册

Bulletin
Investor Alert

Earnings Calendar

SEARCH
No results found.
Sorry, this date currently does not have any earnings announcements scheduled.
Sorry, this date currently does not have any earnings announcements scheduled.
Sorry, this date currently does not have any earnings announcements scheduled.
Sorry, this date currently does not have any earnings announcements scheduled.
Sorry, this date currently does not have any earnings announcements scheduled.
Company Name Symbol Fiscal Quarter EPS Forecast EPS Actual Surprise
JD.com Inc. ADR JD 12/31/2019 0.46 0.54 +0.08 (17.00%)
Pattern Energy Group Inc. PEGI 12/31/2019 0.15 0.54 +0.39 (264.86%)
Northwest Natural Holding Co. NWN 12/31/2019 1.22 1.26 +0.04 (2.92%)
Essential Properties Realty Trust Inc. EPRT 12/31/2019 0.17 0.18 +0.02 (9.09%)
Core-Mark Holding Co. Inc. CORE 12/31/2019 0.39 0.45 +0.07 (16.88%)
WillScot Corp. WSC 12/31/2019 0.12 0.14 +0.02 (15.90%)
Dentsply Sirona Inc. XRAY 12/31/2019 0.75 0.73 -0.02 (-2.32%)
WAVE Life Sciences Ltd. WVE 12/31/2019 -1.46 -1.65 -0.19 (13.35%)
Eagle Pharmaceuticals Inc. EGRX 12/31/2019 0.47 0.48 +0.02 (3.23%)
Circor International Inc. CIR 12/31/2019 0.77 0.82 +0.05 (6.39%)
Seres Therapeutics Inc. MCRB 12/31/2019 -0.28 -0.27 +0.01 (-2.99%)
Oxford Immunotec Global PLC OXFD 12/31/2019 -0.10 -0.06 +0.04 (-38.46%)
Five Star Senior Living Inc. FVE 12/31/2019 -1.10 0.18 +1.28 (-116.36%)
Tecnoglass Inc. TGLS 12/31/2019 0.18 0.16 -0.02 (-11.93%)
Diversified Healthcare Trust DHC 12/31/2019 0.03 -0.21 -0.23 (-879.61%)
Amicus Therapeutics Inc. FOLD 12/31/2019 -0.35 -0.35 0.00 (0.91%)
Neon Therapeutics Inc. NTGN 12/31/2019 -0.66 -0.63 +0.03 (-4.83%)
GTT Communications Inc. GTT 12/31/2019 -0.27 -0.34 -0.07 (23.95%)
Intra-Cellular Therapies Inc. ITCI 12/31/2019 -0.81 -0.74 +0.07 (-9.02%)
Albireo Pharma Inc. ALBO 12/31/2019 -1.64 -0.57 +1.07 (-65.30%)
Heron Therapeutics Inc. HRTX 12/31/2019 -0.57 -0.65 -0.08 (14.48%)
Evergy Inc. EVRG 12/31/2019 0.31 0.32 +0.01 (3.06%)
Kaleido Biosciences Inc. KLDO 12/31/2019 -0.26 -0.65 -0.39 (147.62%)
LSC Communications Inc. LKSD 12/31/2019 -0.22 -1.03 -0.81 (370.78%)
Ebix Inc. EBIX 12/31/2019 0.99 1.04 +0.06 (5.58%)
UroGen Pharma Ltd. URGN 12/31/2019 -1.70 -1.86 -0.16 (9.48%)
Travelzoo TZOO 12/31/2019 0.11 -0.05 -0.16 (-145.45%)
Rhythm Pharmaceuticals Inc. RYTM 12/31/2019 -0.88 -0.78 +0.10 (-11.74%)
WhiteHorse Finance Inc. WHF 12/31/2019 0.36 0.39 +0.03 (7.30%)
Jason Industries Inc. JASN 12/31/2019 -0.02 -0.61 -0.59 (2950.00%)
BridgeBio Pharma Inc. BBIO 12/31/2019 -0.70 -0.62 +0.08 (-11.07%)
La Jolla Pharmaceutical Co. LJPC 12/31/2019 -0.98 -0.93 +0.04 (-4.62%)
Voyager Digital (Canada) Ltd. VYGVF 12/31/2019 -0.04 -0.01 +0.03 (-75.00%)
AnaptysBio Inc. ANAB 12/31/2019 -1.20 -0.75 +0.45 (-37.33%)
Huttig Building Products Inc. HBP 12/31/2019 0.00 N/A N/A
PTC Therapeutics Inc. PTCT 12/31/2019 -0.45 -1.37 -0.92 (205.75%)
Allscripts Healthcare Solutions Inc. MDRX 12/31/2019 0.18 0.17 -0.01 (-7.17%)
Fate Therapeutics Inc. FATE 12/31/2019 -0.39 -0.37 +0.02 (-4.12%)
Livongo Health Inc. LVGO 12/31/2019 -0.05 0.02 +0.07 (-141.38%)
Zogenix Inc. ZGNX 12/31/2019 -1.04 -1.26 -0.22 (20.63%)
FibroGen Inc. FGEN 12/31/2019 -0.59 -1.12 -0.53 (90.20%)
Omeros Corp. OMER 12/31/2019 -0.40 -0.58 -0.18 (45.00%)
Precigen Inc. PGEN 12/31/2019 -0.25 -0.25 -0.01 (2.36%)
Tilray Inc. Cl 2 TLRY 12/31/2019 -0.36 -2.14 -1.78 (489.41%)
BeiGene Ltd. ADR BGNE 12/31/2019 -4.80 -6.39 -1.59 (33.11%)
StoneCo Ltd. Cl A STNE 12/31/2019 0.97 0.97 0.00 (-0.37%)
uniQure N.V. QURE 12/31/2019 -0.71 -0.96 -0.25 (34.27%)
Verra Mobility Corp. Cl A VRRM 12/31/2019 0.16 0.17 +0.01 (6.24%)
Ameresco Inc. Cl A AMRC 12/31/2019 0.39 0.46 +0.07 (17.35%)
GreenSky Inc. Cl A GSKY 12/31/2019 0.13 0.12 -0.01 (-5.97%)
Everi Holdings Inc. EVRI 12/31/2019 0.08 -0.05 -0.13 (-162.49%)
TransMedics Group Inc. TMDX 12/31/2019 -0.39 -0.43 -0.04 (10.26%)
GenMark Diagnostics Inc. GNMK 12/31/2019 -0.16 -0.17 -0.01 (5.36%)
ZIOPHARM Oncology Inc. ZIOP 12/31/2019 -0.08 -0.09 -0.01 (14.89%)
Inter Parfums Inc. IPAR 12/31/2019 0.25 0.26 +0.01 (2.24%)
AppFolio Inc. APPF 12/31/2019 0.03 0.12 +0.09 (258.19%)
NCS Multistage Holdings Inc. NCSM 12/31/2019 -0.05 -0.04 +0.01 (-19.85%)
Maxar Technologies Inc. MAXR 12/31/2019 0.12 -1.25 -1.37 (-1145.15%)
Boingo Wireless Inc. WIFI 12/31/2019 -0.11 -0.12 -0.01 (13.68%)
Universal Insurance Holdings Inc. UVE 12/31/2019 -1.04 -1.57 -0.53 (51.63%)
Northwest Pipe Co. NWPX 12/31/2019 0.99 1.22 +0.24 (23.86%)
Impinj Inc. PI 12/31/2019 0.01 0.03 +0.03 (500.00%)
Zymeworks Inc. ZYME 12/31/2019 -0.85 -1.66 -0.81 (95.24%)
Sterling Construction Co. Inc. STRL 12/31/2019 0.26 0.22 -0.04 (-13.73%)
Capitala Finance Corp. CPTA 12/31/2019 0.20 0.12 -0.08 (-39.24%)
Intrepid Potash Inc. IPI 12/31/2019 0.02 0.02 +0.00 (1.62%)
Ferro Corp. FOE 12/31/2019 0.26 0.17 -0.09 (-33.33%)
7073彩票注册 Resource Corp. GORO 12/31/2019 0.08 0.00 -0.08 (-100.00%)
Quaker Chemical Corp. KWR 12/31/2019 1.29 1.34 +0.05 (4.04%)
Air Transport Services Group Inc. ATSG 12/31/2019 0.42 0.56 +0.14 (34.62%)
Granite Point Mortgage Trust Inc. GPMT 12/31/2019 0.37 0.34 -0.03 (-7.88%)
Tidewater Inc. TDW 12/31/2019 -0.62 -0.64 -0.02 (3.23%)
Heritage-Crystal Clean Inc. HCCI 12/31/2019 0.32 -0.09 -0.41 (-128.57%)
Ambac Financial Group Inc. AMBC 12/31/2019 -0.39 -1.91 -1.52 (389.74%)
Ferroglobe PLC GSM 12/31/2019 -0.23 -0.32 -0.10 (42.22%)
Conformis Inc. CFMS 12/31/2019 -0.10 -0.08 +0.02 (-19.73%)
Sociedad Quimica y Minera De Chile S.A. ADR SQM 12/31/2019 0.25 0.25 +0.00 (0.28%)
Company Name Symbol Fiscal Quarter EPS Forecast EPS Actual Surprise
Flex7073彩票注册per Inc. FPAY 12/31/2019 -0.12 -0.09 +0.03 (-27.03%)
Rostelecom ADR ROSYY 12/31/2019 0.21 0.12 -0.09 (-41.65%)
Chinook Energy Inc. CNKEF 12/31/2019 -0.01 -0.04 -0.04 (437.92%)
Soliton Inc. SOLY 12/31/2019 -0.23 -0.20 +0.03 (-13.04%)
Itamar Medical Ltd. ADR ITMR 12/31/2019 -0.05 0.00 +0.05 (-100.00%)
Neuronetics Inc. STIM 12/31/2019 -0.44 -0.41 +0.03 (-7.08%)
International Seaways Inc. INSW 12/31/2019 1.49 1.32 -0.17 (-11.56%)
Stellus Capital Investment Corp. SCM 12/31/2019 0.32 0.32 +0.00 (1.27%)
Myers Industries Inc. MYE 12/31/2019 0.12 0.12 +0.00 (4.35%)
Sea Ltd. ADR SE 12/31/2019 -0.31 -0.53 -0.22 (72.45%)
Target Corp. TGT 1/31/2020 1.65 1.69 +0.04 (2.25%)
International Game Technology PLC IGT 12/31/2019 0.24 0.31 +0.07 (26.71%)
AutoZone Inc. AZO 2/29/2020 11.75 12.39 +0.64 (5.43%)
TG Therapeutics Inc. TGTX 12/31/2019 -0.42 -0.44 -0.02 (5.39%)
Shiloh Industries Inc. SHLO 1/31/2020 0.03 -0.12 -0.15 (-500.00%)
Sierra Oncology Inc. SRRA 12/31/2019 -3.17 -2.51 +0.66 (-20.70%)
Antares Pharma Inc. ATRS 12/31/2019 0.00 0.03 +0.03 (800.09%)
Armstrong Flooring Inc. AFI 12/31/2019 -0.61 -1.05 -0.44 (72.13%)
Exicure Inc. XCUR 12/31/2019 -0.09 -0.13 -0.04 (42.86%)
Autolus Therapeutics Ltd. ADR AUTL 12/31/2019 -0.74 -0.92 -0.18 (24.61%)
Hutchison China MediTech Ltd. ADR HCM 12/31/2019 -0.22 -0.22 0.00 (1.69%)
InterRent Real Estate Investment Trust IIPZF 12/31/2019 0.10 N/A N/A
Kohl's Corp. KSS 1/31/2020 1.88 1.99 +0.11 (5.91%)
Magenta Therapeutics Inc. MGTA 12/31/2019 -0.58 -0.59 -0.01 (1.72%)
Twin River Worldwide Holdings Inc. TRWH 12/31/2019 0.39 0.40 +0.01 (1.70%)
CHF Solutions Inc. CHFS 12/31/2019 -0.80 -1.12 -0.32 (40.00%)
Barnes & Noble Education Inc. BNED 1/31/2020 -0.16 -0.02 +0.14 (-87.23%)
Hemisphere Media Group Inc. Cl A HMTV 12/31/2019 0.09 0.10 +0.02 (17.65%)
Bank Polska Kasa Opieki S.A. GDR 144A PKSKY 12/31/2019 0.67 0.76 +0.09 (12.77%)
Bank Polska Kasa Opieki S.A. GDR Reg S PKSVF 12/31/2019 0.67 0.76 +0.09 (12.77%)
Cytokinetics Inc. CYTK 12/31/2019 -0.44 -0.52 -0.08 (18.18%)
LATAM Airlines Group S.A. ADR LTM 12/31/2019 0.28 0.37 +0.09 (34.10%)
Atento S.A. ATTO 12/31/2019 0.06 0.03 -0.03 (-50.00%)
Benefytt Technologies Inc. BFYT 12/31/2019 2.39 2.48 +0.09 (3.77%)
Ross Stores Inc. ROST 1/31/2020 1.26 1.28 +0.02 (1.96%)
Semler Scientific Inc. SMLR 12/31/2019 0.32 0.35 +0.04 (11.11%)
Voyager Therapeutics Inc. VYGR 12/31/2019 -0.72 -0.34 +0.38 (-53.05%)
Monroe Capital Corp. MRCC 12/31/2019 0.35 0.37 +0.02 (5.71%)
Profound Medical Corp. PROF 12/31/2019 -0.44 -0.32 +0.12 (-27.25%)
Covetrus Inc. CVET 12/31/2019 0.12 0.18 +0.06 (48.09%)
Cardlytics Inc. CDLX 12/31/2019 -0.18 0.12 +0.30 (-165.60%)
Nordstrom Inc. JWN 1/31/2020 1.47 1.42 -0.05 (-3.69%)
Hewlett Packard Enterprise Co. HPE 1/31/2020 0.44 0.44 +0.00 (0.30%)
Ambarella Inc. AMBA 1/31/2020 0.11 0.14 +0.03 (22.22%)
Veeva Systems Inc. Cl A VEEV 1/31/2020 0.52 0.54 +0.02 (3.61%)
OneSpan Inc. OSPN 12/31/2019 0.10 0.13 +0.03 (33.33%)
Infinity Pharmaceuticals Inc. INFI 12/31/2019 -0.19 -0.21 -0.02 (11.70%)
Fox Factory Holding Corp. FOXF 12/31/2019 0.62 0.65 +0.03 (5.41%)
Data I/O Corp. DAIO 12/31/2019 -0.09 -0.06 +0.03 (-33.33%)
Durect Corp. DRRX 12/31/2019 -0.02 -0.02 0.00 (14.29%)
Vectrus Inc. VEC 12/31/2019 0.93 0.93 Met
Great Ajax Corp. AJX 12/31/2019 0.38 0.31 -0.07 (-18.95%)
VIVUS Inc. VVUS 12/31/2019 -0.68 -0.61 +0.07 (-10.29%)
Benefitfocus Inc. BNFT 12/31/2019 -0.05 0.06 +0.11 (-217.65%)
Synacor Inc. SYNC 12/31/2019 -0.04 -0.01 +0.03 (-73.33%)
Syndax Pharmaceuticals Inc. SNDX 12/31/2019 -0.43 -0.44 -0.01 (3.01%)
Green Brick Partners Inc. GRBK 12/31/2019 0.29 0.31 +0.02 (6.90%)
Urban Outfitters Inc. URBN 1/31/2020 0.63 0.50 -0.13 (-20.20%)
AeroVironment Inc. AVAV 1/31/2020 0.17 -0.01 -0.18 (-105.77%)
Yext Inc. YEXT 1/31/2020 -0.14 -0.12 +0.02 (-14.29%)
Cornerstone Building Brands Inc. CNR 10/31/2019 0.06 0.11 +0.05 (70.05%)
U.S. Well Services Inc. Cl A USWS 12/31/2019 -0.49 -0.74 -0.25 (50.73%)
Parker Drilling Co. PKDC 12/31/2019 -0.02 -0.14 -0.12 (600.00%)
BRF S.A. ADR BRFS 12/31/2019 0.17 0.17 +0.00 (1.19%)
Company Name Symbol Fiscal Quarter EPS Forecast EPS Actual Surprise
Evogene Ltd. EVGN 12/31/2019 0.34 N/A N/A
Astec Industries Inc. ASTE 12/31/2019 0.38 0.40 +0.02 (5.26%)
Exantas Capital Corp. XAN 12/31/2019 0.29 0.23 -0.06 (-19.30%)
FSD Pharma Inc. HUGE 12/31/2019 -1.09 -1.09 Met
Eyegate Pharmaceuticals Inc. EYEG 12/31/2019 -0.81 N/A N/A
New Fortress Energy LLC Cl A NFE 12/31/2019 -0.25 -0.20 +0.06 (-22.08%)
Andritz AG ADR ADRZY 12/31/2019 0.22 0.22 +0.00 (0.21%)
Acerinox S.A. ADR ANIOY 12/31/2019 0.06 -0.35 -0.41 (-692.36%)
Cidara Therapeutics Inc. CDTX 12/31/2019 -0.43 -0.42 +0.01 (-2.88%)
Titan International Inc. TWI 12/31/2019 -0.11 -0.40 -0.29 (275.00%)
SEACOR Marine Holdings Inc. SMHI 12/31/2019 -0.77 -0.74 +0.03 (-3.90%)
Photronics Inc. PLAB 1/31/2020 0.16 0.16 Met
Navistar International Corp. NAV 1/31/2020 -0.20 -0.32 -0.12 (62.99%)
Ituran Location & Control Ltd. ITRN 12/31/2019 0.34 0.31 -0.03 (-8.82%)
Materialise N.V. ADR MTLS 12/31/2019 0.05 0.03 -0.02 (-33.33%)
Baytex Energy Corp. BTE 12/31/2019 0.05 -0.16 -0.20 (-444.42%)
Vertex Energy Inc. VTNR 12/31/2019 -0.04 0.01 +0.04 (-119.09%)
Owens & Minor Inc. OMI 12/31/2019 0.23 0.26 +0.03 (13.71%)
J.Jill Inc. JILL 1/31/2020 -0.11 -0.05 +0.06 (-53.44%)
Acerus Pharmaceuticals Corp. ASPCF 12/31/2019 -0.02 -0.01 +0.01 (-50.00%)
SiNtx Technologies Inc. SINT 12/31/2019 -0.73 -0.48 +0.25 (-34.25%)
RedHill Biopharma Ltd. ADR RDHL 12/31/2019 -0.32 -0.33 -0.02 (4.76%)
AMAG Pharmaceuticals Inc. AMAG 12/31/2019 -0.40 -0.35 +0.05 (-13.04%)
Transalta Corp. TAC 12/31/2019 -0.05 0.18 +0.23 (-450.49%)
Ceco Environmental Corp. CECE 12/31/2019 0.14 0.27 +0.13 (87.50%)
Dollar Tree Inc. DLTR 1/31/2020 1.76 1.79 +0.03 (1.92%)
Campbell Soup Co. CPB 1/31/2020 0.67 0.72 +0.05 (6.95%)
Brown-Forman Corp. Cl A BF.A 1/31/2020 0.50 0.48 -0.02 (-3.62%)
Brown-Forman Corp. Cl B BF.B 1/31/2020 0.50 0.48 -0.02 (-3.70%)
John Wiley & Sons Inc. Cl B JW.B 1/31/2020 0.51 0.68 +0.17 (33.33%)
John Wiley & Sons Inc. Cl A JW.A 1/31/2020 0.51 0.68 +0.17 (33.33%)
OFS Credit Co. Inc. OCCI 1/31/2020 0.46 0.85 +0.39 (84.78%)
Abercrombie & Fitch Co. ANF 1/31/2020 1.23 1.31 +0.08 (6.27%)
Recro Pharma Inc. REPH 12/31/2019 -0.23 -0.41 -0.18 (74.74%)
UFP Technologies Inc. UFPT 12/31/2019 0.60 0.77 +0.17 (28.33%)
KB Financial Group Inc. ADR KB 12/31/2019 1.16 1.16 -0.01 (-0.47%)
Companhia Siderurgica Nacional ADR SID 12/31/2019 0.18 0.18 0.00 (-1.20%)
Companhia de Transmissao de Energia Eletrica Paulista ADR CTPTY 12/31/2019 0.15 0.20 +0.06 (38.11%)
Companhia de Transmissao de Energia Eletrica Paulista ADR CTPZY 12/31/2019 0.15 0.20 +0.06 (38.11%)
PPD Inc. PPD 12/31/2019 0.27 0.33 +0.06 (20.62%)
Axonics Modulation Technologies Inc. AXNX 12/31/2019 -0.72 -0.75 -0.03 (4.77%)
Descartes Systems Group Inc. DSGX 1/31/2020 0.13 0.13 +0.00 (3.31%)
American Eagle Outfitters Inc. AEO 1/31/2020 0.36 0.37 +0.01 (4.07%)
Qumu Corp. QUMU 12/31/2019 -0.15 -0.17 -0.03 (17.24%)
Vapotherm Inc. VAPO 12/31/2019 -0.70 -0.55 +0.15 (-21.14%)
Finjan Holdings Inc. FNJN 12/31/2019 -0.27 -0.22 +0.05 (-18.52%)
BlackRock Capital Investment Corp. BKCC 12/31/2019 0.14 0.14 +0.00 (1.65%)
Splunk Inc. SPLK 1/31/2020 0.97 0.96 -0.01 (-0.56%)
Comtech Telecommunications Corp. CMTL 1/31/2020 0.26 0.14 -0.12 (-45.62%)
Opiant Pharmaceuticals Inc. OPNT 12/31/2019 0.18 0.20 +0.02 (11.11%)
Soleno Therapeutics Inc. SLNO 12/31/2019 -0.16 -0.36 -0.20 (125.00%)
Points International Ltd. PCOM 12/31/2019 0.22 0.20 -0.02 (-9.09%)
Hudson Technologies Inc. HDSN 12/31/2019 -0.13 -0.25 -0.12 (92.31%)
Marvell Technology Group Ltd. MRVL 1/31/2020 0.16 0.17 +0.01 (5.61%)
Newtek Business Services Corp. NEWT 12/31/2019 0.73 0.69 -0.04 (-5.05%)
Veritone Inc. VERI 12/31/2019 -0.38 -0.33 +0.05 (-12.58%)
RCM Technologies Inc. RCMT 12/31/2019 0.11 0.08 -0.03 (-27.27%)
SilverBow Resources Inc. SBOW 12/31/2019 1.62 2.07 +0.45 (27.87%)
Assembly Biosciences Inc. ASMB 12/31/2019 -1.01 -0.99 +0.02 (-1.74%)
OrthoPediatrics Corp. KIDS 12/31/2019 -0.25 -0.29 -0.04 (15.87%)
RigNet Inc. RNET 12/31/2019 -0.10 -0.03 +0.07 (-70.00%)
Ping Identity Holding Corp. PING 12/31/2019 0.10 0.14 +0.04 (33.72%)
MYR Group Inc. MYRG 12/31/2019 0.60 0.76 +0.16 (27.20%)
PlayAGS Inc. AGS 12/31/2019 0.03 0.04 +0.01 (48.01%)
Culp Inc. CULP 1/31/2020 0.13 1.10 +0.97 (765.24%)
Guidewire Software Inc. GWRE 1/31/2020 0.15 0.21 +0.06 (42.36%)
ABM Industries Inc. ABM 1/31/2020 0.30 0.39 +0.09 (31.46%)
WideOpenWest Inc. WOW 12/31/2019 0.20 0.08 -0.12 (-59.78%)
Gulf Island Fabrication Inc. GIFI 12/31/2019 -0.18 -2.26 -2.08 (1132.60%)
Cross Country Healthcare Inc. CCRN 12/31/2019 0.06 0.07 +0.01 (19.51%)
TriplePoint Venture Growth BDC Corp. TPVG 12/31/2019 0.40 0.45 +0.05 (12.10%)
Zoom Video Communications Inc. ZM 1/31/2020 0.07 0.15 +0.08 (113.43%)
Pennant Group Inc. PNTG 12/31/2019 0.16 0.16 Met
Global Medical REIT Inc. GMRE 12/31/2019 0.05 0.03 -0.02 (-34.78%)
GeoPark Ltd. GPRK 12/31/2019 0.93 N/A N/A
DBV Technologies S.A. ADR DBVT 12/31/2019 -0.99 N/A N/A
21Vianet Group Inc. ADR VNET 12/31/2019 0.41 -0.02 -0.43 (-104.88%)
REV Group Inc. REVG 1/31/2020 -0.03 -0.04 -0.01 (22.50%)
Western Asset Mortgage Capital Corp. WMC 12/31/2019 0.30 0.28 -0.02 (-5.08%)
USD Partners LP USDP 12/31/2019 0.23 N/A N/A
W&T Offshore Inc. WTI 12/31/2019 -0.01 0.17 +0.18 (-1597.40%)
Ryerson Holding Corp. RYI 12/31/2019 0.10 0.30 +0.20 (212.05%)
Tribune Publishing Co. TPCO 12/31/2019 0.41 -0.36 -0.77 (-187.80%)
OTC Markets Group Inc. Cl A OTCM 12/31/2019 0.34 0.48 +0.14 (41.18%)
TTEC Holdings Inc. TTEC 12/31/2019 0.63 0.65 +0.02 (3.88%)
Eagle Bulk Shipping Inc. EGLE 12/31/2019 -0.05 -0.16 -0.11 (248.59%)
Crescent Capital BDC Inc. CCAP 12/31/2019 0.48 0.41 -0.07 (-14.58%)
Cellectis S.A. ADR CLLS 12/31/2019 -0.74 -0.88 -0.14 (18.17%)
Quintana Energy Services Inc. QES 12/31/2019 -0.24 -0.24 +0.01 (-3.80%)
Global Water Resources Inc. GWRS 12/31/2019 0.02 -0.01 -0.03 (-150.00%)
Company Name Symbol Fiscal Quarter EPS Forecast EPS Actual Surprise
ObsEva S.A. OBSV 12/31/2019 -0.48 -0.48 0.00 (0.60%)
Plug Power Inc. PLUG 12/31/2019 -0.07 -0.07 0.00 (2.08%)
PLDT Inc. ADR PHI 12/31/2019 0.45 0.59 +0.14 (30.72%)
Granite REIT Inc. GRP.UT 12/31/2019 0.70 1.29 +0.58 (82.35%)
Luxfer Holdings PLC LXFR 12/31/2019 0.24 0.22 -0.02 (-8.33%)
Ballard Power Systems Inc. BLDP 12/31/2019 -0.04 -0.04 Met
Spark Energy Inc. SPKE 12/31/2019 0.05 N/A N/A
Denison Mines Corp. DNN 12/31/2019 -0.01 0.00 +0.01 (-100.00%)
Sekisui House Ltd. ADR SKHSY 1/31/2020 0.42 0.33 -0.09 (-20.57%)
Henkel AG & Co. KGaA ADR HENKY 12/31/2019 0.36 0.35 -0.01 (-1.52%)
Henkel AG & Co. KGaA Pfd. ADR HENOY 12/31/2019 0.36 0.35 -0.01 (-1.52%)
Canadian Natural Resources Ltd. CNQ 12/31/2019 0.54 0.43 -0.10 (-19.32%)
Vipshop Holdings Ltd. ADR VIPS 12/31/2019 0.30 2.84 +2.54 (842.80%)
Medalist Diversified REIT Inc. MDRR 12/31/2019 -0.07 -0.15 -0.08 (114.29%)
Tech Data Corp. TECD 1/31/2020 4.82 4.88 +0.06 (1.31%)
GMS Inc. GMS 1/31/2020 0.51 0.52 +0.01 (2.16%)
Option Care Health Inc. OPCH 12/31/2019 -0.05 -0.09 -0.05 (100.00%)
Dixie Group Inc. DXYN 12/31/2019 0.18 N/A N/A
Despegar.com Corp. DESP 12/31/2019 -0.07 0.01 +0.08 (-113.77%)
Goodrich Petroleum Corp. GDP 12/31/2019 0.14 0.23 +0.09 (61.86%)
Sprague Resources LP SRLP 12/31/2019 0.63 0.38 -0.25 (-40.21%)
Crescent Point Energy Corp. CPG 12/31/2019 -0.05 -1.29 -1.25 (2714.33%)
OptiNose Inc. OPTN 12/31/2019 -0.62 -0.58 +0.04 (-6.45%)
Diamond S Shipping Inc. DSSI 12/31/2019 0.87 0.75 -0.12 (-13.33%)
BJ's Wholesale Club Holdings Inc. BJ 1/31/2020 0.40 0.40 +0.00 (0.12%)
Burlington Stores Inc. BURL 1/31/2020 3.23 3.25 +0.02 (0.71%)
Kontoor Brands Inc. KTB 12/31/2019 0.92 0.97 +0.05 (5.43%)
Surgery Partners Inc. SGRY 12/31/2019 0.12 0.10 -0.02 (-19.41%)
Amplify Energy Corp. AMPY 12/31/2019 0.16 -0.71 -0.87 (-558.06%)
EyePoint Pharmaceuticals Inc. EYPT 12/31/2019 -0.12 -0.10 +0.02 (-14.89%)
Xtant Medical Holdings Inc. XTNT 12/31/2019 -0.21 -0.12 +0.09 (-42.86%)
Rocket Pharmaceuticals Inc. RCKT 12/31/2019 -0.49 -0.39 +0.10 (-19.94%)
Calumet Specialty Products Partners L.P. CLMT 12/31/2019 -0.40 -0.48 -0.08 (20.75%)
Fulcrum Therapeutics Inc. FULC 12/31/2019 -0.82 -0.71 +0.11 (-13.06%)
Methode Electronics Inc. MEI 1/31/2020 0.89 1.09 +0.20 (22.93%)
Cantel Medical Corp. CMD 1/31/2020 0.64 0.61 -0.03 (-5.06%)
Ciena Corp. CIEN 1/31/2020 0.38 0.52 +0.14 (36.84%)
Donaldson Co. Inc. DCI 1/31/2020 0.48 0.50 +0.03 (5.26%)
BioCryst Pharmaceuticals Inc. BCRX 12/31/2019 -0.26 -0.02 +0.24 (-92.21%)
Aurora Mobile Ltd. ADR JG 12/31/2019 -0.02 -0.53 -0.51 (2550.00%)
Calyxt Inc. CLXT 12/31/2019 -0.33 -0.37 -0.04 (11.56%)
Merck KGaA ADR MKKGY 12/31/2019 0.34 0.34 +0.01 (2.28%)
Syros Pharmaceuticals Inc. SYRS 12/31/2019 -0.46 -0.46 Met
Arbutus Biopharma Corp. ABUS 12/31/2019 -0.36 -0.46 -0.10 (27.07%)
Ranpak Holdings Corp. PACK 12/31/2019 0.01 -0.07 -0.08 (-800.00%)
Continental AG CTTAF 12/31/2019 2.72 -1.68 -4.40 (-161.77%)
Continental AG ADR CTTAY 12/31/2019 0.27 -0.17 -0.44 (-161.77%)
VBI Vaccines Inc. VBIV 12/31/2019 -0.06 -0.03 +0.03 (-47.83%)
Eros International PLC A EROS 12/31/2019 0.07 -0.16 -0.22 (-327.76%)
Toro Co. TTC 1/31/2020 0.58 0.64 +0.06 (10.66%)
Kroger Co. KR 1/31/2020 0.56 0.57 +0.01 (2.57%)
Netlist Inc. NLST 12/31/2019 -0.02 -0.01 +0.01 (-56.08%)
Global Ship Lease Inc. Cl A GSL 12/31/2019 0.32 0.28 -0.04 (-12.62%)
Hovnanian Enterprises Inc. Cl A HOV 1/31/2020 -2.10 -1.49 +0.61 (-29.05%)
ProSiebenSat.1 Media SE ADR PBSFY 12/31/2019 0.12 0.17 +0.05 (44.78%)
Smith Micro Software Inc. SMSI 12/31/2019 0.07 0.08 +0.01 (14.29%)
CAI International Inc. CAI 12/31/2019 0.69 0.54 -0.15 (-21.36%)
Energy Recovery Inc. ERII 12/31/2019 -0.02 -0.01 +0.01 (-40.00%)
Eloxx Pharmaceuticals Inc. ELOX 12/31/2019 -0.33 -0.29 +0.04 (-10.95%)
Iochpe-Maxion S/A ADR IOCJY 12/31/2019 0.03 0.03 Met
Oncolytics Biotech Inc. ONCY 12/31/2019 -0.34 -0.53 -0.19 (55.55%)
Silvercrest Asset Management Group Inc. Cl A SAMG 12/31/2019 0.45 0.31 -0.14 (-31.11%)
PC-Tel Inc. PCTI 12/31/2019 0.12 0.16 +0.05 (39.13%)
Eton Pharmaceuticals Inc. ETON 12/31/2019 -0.26 -0.15 +0.11 (-43.04%)
Aurinia Pharmaceuticals Inc. AUPH 12/31/2019 -0.20 -0.78 -0.58 (287.23%)
DASAN Zhone Solutions Inc. DZSI 12/31/2019 0.16 -0.11 -0.27 (-168.75%)
Altisource Portfolio Solutions S.A. ASPS 12/31/2019 0.47 0.26 -0.21 (-44.68%)
Extraction Oil & Gas Inc. XOG 12/31/2019 -0.07 0.36 +0.43 (-653.23%)
Montage Resources Corp. MR 12/31/2019 0.32 0.89 +0.57 (176.80%)
Corvus Pharmaceuticals Inc. CRVS 12/31/2019 -0.33 -0.38 -0.05 (15.70%)
Alphatec Holdings Inc. ATEC 12/31/2019 -0.17 -0.28 -0.11 (62.32%)
Willdan Group Inc. WLDN 12/31/2019 0.83 0.97 +0.14 (17.34%)
El Pollo Loco Holdings Inc. LOCO 12/31/2019 0.16 0.18 +0.02 (13.92%)
Renewable Energy Group Inc. REGI 12/31/2019 0.02 11.50 +11.48 (49186.42%)
Avinger Inc. AVGR 12/31/2019 -0.52 -0.58 -0.06 (11.54%)
Luna Innovations Inc. LUNA 12/31/2019 0.04 0.07 +0.03 (64.71%)
Caladrius Biosciences Inc. CLBS 12/31/2019 -0.31 -0.47 -0.16 (51.61%)
Zafgen Inc. ZFGN 12/31/2019 -0.21 -0.19 +0.02 (-9.52%)
Joint Corp. JYNT 12/31/2019 0.07 0.09 +0.02 (22.73%)
CryoPort Inc. CYRX 12/31/2019 -0.07 -0.03 +0.04 (-59.62%)
Chuy's Holdings Inc. CHUY 12/31/2019 0.12 0.17 +0.05 (41.67%)
Okta Inc. Cl A OKTA 1/31/2020 -0.05 -0.01 +0.04 (-78.11%)
Progyny Inc. PGNY 12/31/2019 0.01 0.01 0.00 (-2.03%)
Arcus Biosciences Inc. RCUS 12/31/2019 -0.51 -0.38 +0.13 (-25.93%)
Vivint Smart Home Inc. Cl A VVNT 12/31/2019 -0.51 -0.57 -0.06 (11.76%)
THL Credit Inc. TCRD 12/31/2019 0.21 0.16 -0.05 (-23.08%)
Entravision Communications Corp. EVC 12/31/2019 0.05 0.09 +0.04 (80.00%)
Kadmon Holdings Inc. KDMN 12/31/2019 -0.21 -0.09 +0.12 (-57.14%)
Funko Inc. Cl A FNKO 12/31/2019 0.14 0.18 +0.04 (24.62%)
Crawford & Co. Cl A CRD.A 12/31/2019 0.12 0.14 +0.02 (16.67%)
Crawford & Co. Cl B CRD.B 12/31/2019 0.12 0.14 +0.02 (16.67%)
Cytosorbents Corp. CTSO 12/31/2019 -0.16 -0.13 +0.03 (-20.73%)
Mohawk Group Holdings Inc. MWK 12/31/2019 -0.39 -0.57 -0.18 (44.98%)
HCI Group Inc. HCI 12/31/2019 0.85 0.76 -0.09 (-10.23%)
Immersion Corp. IMMR 12/31/2019 0.09 0.10 +0.02 (17.65%)
ADT Inc. ADT 12/31/2019 0.23 -0.03 -0.26 (-112.78%)
Ooma Inc. OOMA 1/31/2020 0.01 0.04 +0.03 (400.00%)
Cooper Cos. COO 1/31/2020 2.72 2.69 -0.03 (-0.95%)
American Outdoor Brands Corp. AOBC 1/31/2020 0.23 0.13 -0.10 (-44.44%)
Quanex Building Products Corp. NX 1/31/2020 -0.06 0.04 +0.10 (-163.16%)
Costco Wholesale Corp. COST 2/29/2020 2.06 2.10 +0.04 (1.76%)
H&R Block Inc. HRB 1/31/2020 -0.55 -0.59 -0.04 (6.41%)
UMH Properties Inc. UMH 12/31/2019 -0.06 -0.08 -0.02 (28.00%)
National Beverage Corp. FIZZ 1/31/2020 0.50 0.57 +0.07 (14.15%)
Maverix Metals Inc. MMX 12/31/2019 -0.10 0.03 +0.13 (-126.58%)
AquaVenture Holdings Ltd. WAAS 12/31/2019 -0.17 -0.22 -0.05 (29.41%)
Era Group Inc. ERA 12/31/2019 0.06 -0.23 -0.29 (-484.65%)
Sirius International Insurance Group Ltd. SG 12/31/2019 -0.24 -1.19 -0.95 (399.73%)
OTP Bank Nyrt. GDR Reg S OTPGF 12/31/2019 0.59 0.68 +0.09 (14.81%)
Cypress Energy Partners L.P. CELP 12/31/2019 0.22 0.23 +0.01 (4.55%)
Company Name Symbol Fiscal Quarter EPS Forecast EPS Actual Surprise
Bionano Genomics Inc. BNGO 12/31/2019 -0.18 -0.15 +0.03 (-16.67%)
Natura & Co. Holding S.A. ADR NTCO 12/31/2019 0.18 0.18 -0.01 (-2.71%)
Flotek Industries Inc. FTK 12/31/2019 -0.20 -0.22 -0.02 (12.00%)
Portman Ridge Finance Corp. PTMN 12/31/2019 0.06 0.23 +0.17 (283.33%)
CGG ADR CGGYY 12/31/2019 -0.04 0.09 +0.13 (-357.14%)
TMK GDR TMKOL 12/31/2019 0.18 N/A N/A
Drive Shack Inc. DS 12/31/2019 -0.26 -0.25 +0.01 (-3.85%)
YPF S.A. ADR YPF 12/31/2019 -0.20 -0.43 -0.23 (118.92%)
Vermilion Energy Inc. VET 12/31/2019 0.07 0.01 -0.07 (-89.99%)
Digirad Corp. DRAD 12/31/2019 -0.04 0.30 +0.34 (-850.00%)
Milestone Pharmaceuticals Inc. MIST 12/31/2019 -0.52 -0.75 -0.24 (45.63%)
Bio-Path Holdings Inc. BPTH 12/31/2019 -0.69 -0.73 -0.04 (5.80%)
Check-Cap Ltd. CHEK 12/31/2019 -0.43 -0.46 -0.03 (6.15%)
DXP Enterprises Inc. DXPE 12/31/2019 0.60 0.12 -0.48 (-79.89%)
Global Partners LP GLP 12/31/2019 -0.07 -0.08 -0.01 (10.34%)
Empresa Distribuidora y Comercializadora Norte S.A. Cl B ADR EDN 12/31/2019 -0.08 -0.08 Met
Ardelyx Inc. ARDX 12/31/2019 -0.32 -0.27 +0.05 (-16.88%)
Company Name Symbol Fiscal Quarter EPS Forecast EPS Actual Surprise
Vaccinex Inc. VCNX 12/31/2019 -0.58 -0.35 +0.23 (-39.66%)
Americas 7073彩票注册 & Silver Corp. USAS 12/31/2019 -0.03 -0.18 -0.16 (620.00%)
Sogou Inc. ADR SOGO 12/31/2019 0.07 0.09 +0.02 (29.72%)
Sohu.com Ltd. ADR SOHU 12/31/2019 -0.38 0.17 +0.55 (-144.74%)
China Online Education Group ADR COE 12/31/2019 -0.75 0.00 +0.75 (-100.00%)
KLX Energy Services Holdings Inc. KLXE 1/31/2020 -0.39 -0.56 -0.17 (43.59%)
Vertiv Holdings LLC VRT 12/31/2019 0.05 0.05 Met
Nine Energy Service Inc. NINE 12/31/2019 -0.47 -0.57 -0.10 (20.17%)
Matinas BioPharma Holdings Inc. MTNB 12/31/2019 -0.03 -0.04 -0.01 (26.31%)
Thor Industries Inc. THO 1/31/2020 0.72 0.67 -0.05 (-6.82%)
Randstad N.V. ADR RANJY 12/31/2019 0.62 0.65 +0.03 (4.63%)
BioXcel Therapeutics Inc. BTAI 12/31/2019 -0.63 -0.45 +0.18 (-28.74%)
Magic Software Enterprises Ltd. MGIC 12/31/2019 0.15 0.13 -0.02 (-13.33%)
Minerva Neurosciences Inc. NERV 12/31/2019 -0.38 -0.77 -0.39 (102.40%)
Cellectar Biosciences Inc. CLRB 12/31/2019 -0.37 -0.36 +0.01 (-2.68%)
CPI Card Group Inc. PMTS 12/31/2019 -0.27 -0.14 +0.13 (-48.10%)
Basic Energy Services Inc. BASX 12/31/2019 -1.20 -3.52 -2.31 (192.12%)
Manitex International Inc. MNTX 12/31/2019 0.02 0.04 +0.03 (166.67%)
Changyou.com Ltd. ADR CYOU 12/31/2019 0.58 1.11 +0.53 (91.38%)
Deciphera Pharmaceuticals Inc. DCPH 12/31/2019 -1.15 -1.31 -0.16 (13.69%)
Synchronoss Technologies Inc. SNCR 12/31/2019 -0.42 -0.06 +0.36 (-85.84%)
Xenon Pharmaceuticals Inc. XENE 12/31/2019 -0.48 -0.42 +0.06 (-12.50%)
Vail Resorts Inc. MTN 1/31/2020 5.45 5.04 -0.41 (-7.50%)
Assertio Therapeutics Inc. ASRT 12/31/2019 0.14 -0.14 -0.28 (-200.00%)
Bluegreen Vacations Corp. BXG 12/31/2019 0.17 0.14 -0.03 (-17.65%)
Clarus Corp. CLAR 12/31/2019 0.10 0.40 +0.30 (313.79%)
American Vanguard Corp. AVD 12/31/2019 0.11 0.12 +0.01 (9.52%)
Purple Innovation Inc. PRPL 12/31/2019 0.04 -0.29 -0.33 (-759.09%)
Trecora Resources TREC 12/31/2019 -0.01 -0.80 -0.79 (5900.15%)
Quanterix Corp. QTRX 12/31/2019 -0.44 -0.39 +0.05 (-11.24%)
Greenlight Capital Re Ltd. Cl A GLRE 12/31/2019 -0.15 -0.83 -0.68 (460.68%)
Avid Technology Inc. AVID 12/31/2019 0.30 0.28 -0.02 (-7.44%)
SI-BONE Inc. SIBN 12/31/2019 -0.35 -0.36 -0.01 (3.26%)
Organogenesis Holdings Inc. Cl A ORGO 12/31/2019 -0.09 -0.04 +0.05 (-56.76%)
Ascena Retail Group Inc. ASNA 1/31/2020 -3.80 -4.95 -1.15 (30.26%)
Stitch Fix Inc. Cl A SFIX 1/31/2020 0.07 0.11 +0.04 (47.54%)
Crinetics Pharmaceuticals Inc. CRNX 12/31/2019 -0.68 -0.60 +0.08 (-11.33%)
Casey's General Stores Inc. CASY 1/31/2020 0.89 0.91 +0.02 (2.26%)
International Money Express Inc. IMXI 12/31/2019 0.19 0.20 +0.01 (3.91%)
Aduro Biotech Inc. ADRO 12/31/2019 -0.21 -0.24 -0.03 (14.29%)
Urstadt Biddle Properties Inc. UBP 1/31/2020 0.21 0.12 -0.09 (-42.77%)
Urstadt Biddle Properties Inc. Cl A UBA 1/31/2020 0.21 0.12 -0.09 (-42.77%)
U.S. Auto Parts Network Inc. PRTS 12/31/2019 -0.06 -0.70 -0.64 (1066.67%)
MVC Capital Inc. MVC 1/31/2020 0.16 0.25 +0.10 (61.29%)
Revlon Inc. Cl A REV 12/31/2019 0.00 0.44 N/A
Falcon Minerals Corp. FLMN 12/31/2019 0.06 0.05 -0.01 (-18.83%)
Franco-Nevada Corp. FNV 12/31/2019 0.49 0.59 +0.10 (20.45%)
Hallador Energy Co. HNRG 12/31/2019 -0.01 -1.97 -1.96 (19600.00%)
Company Name Symbol Fiscal Quarter EPS Forecast EPS Actual Surprise
Telecom Argentina S.A. ADR TEO 12/31/2019 0.03 0.04 +0.01 (24.53%)
Innate Pharma S.A. ADR IPHA 12/31/2019 -0.18 -0.18 Met
ChipMOS Technologies Inc. ADR IMOS 12/31/2019 0.53 0.49 -0.04 (-8.32%)
Reynolds Consumer Products Inc. REYN 12/31/2019 0.54 0.53 -0.01 (-2.59%)
Covia Holdings Corp. CVIA 12/31/2019 -0.43 -0.51 -0.08 (17.54%)
Surface Oncology Inc. SURF 12/31/2019 -0.58 -0.57 +0.01 (-1.72%)
Parsons Corp. PSN 12/31/2019 0.41 0.48 +0.07 (18.31%)
Christopher & Banks Corp. CBKC 1/31/2020 -0.18 -0.14 +0.04 (-22.22%)
GP Strategies Corp. GPX 12/31/2019 0.25 0.23 -0.02 (-6.12%)
Zynerba Pharmaceuticals Inc. ZYNE 12/31/2019 -0.50 -0.46 +0.04 (-8.54%)
Bicycle Therapeutics Ltd. ADR BCYC 12/31/2019 -0.52 -0.25 +0.27 (-52.29%)
Lukoil PJSC ADR 144A LUKFY 12/31/2019 3.67 3.67 Met
Lukoil PJSC ADR LUKOY 12/31/2019 3.67 3.67 Met
Galera Therapeutics Inc. GRTX 12/31/2019 -0.61 -1.31 -0.70 (113.74%)
eMagin Corp. EMAN 12/31/2019 -0.01 0.00 +0.01 (-114.81%)
Precision Biosciences Inc. DTIL 12/31/2019 -0.49 -0.41 +0.08 (-16.57%)
Rada Electronic Industries Ltd. RADA 12/31/2019 -0.01 -0.01 -0.01 (100.00%)
Dick's Sporting Goods Inc. DKS 1/31/2020 1.22 1.32 +0.10 (8.43%)
KalVista Pharmaceuticals Inc. KALV 1/31/2020 -0.26 -0.52 -0.26 (98.91%)
Domo Inc. Cl B DOMO 1/31/2020 -0.96 -0.85 +0.11 (-11.48%)
Orgenesis Inc. ORGS 11/30/2019 -0.27 -1.52 -1.25 (462.96%)
XOMA Corp. XOMA 12/31/2019 -0.27 -0.49 -0.22 (81.48%)
Kopin Corp. KOPN 12/31/2019 -0.06 -0.09 -0.03 (50.00%)
Akebia Therapeutics Inc. AKBA 12/31/2019 -0.47 -0.79 -0.32 (67.20%)
InspireMD Inc. NSPR 12/31/2019 -0.57 -0.57 Met
Krystal Biotech Inc. KRYS 12/31/2019 -0.33 -0.29 +0.04 (-11.74%)
Telaria Inc. TLRA 12/31/2019 0.04 0.01 -0.03 (-80.05%)
Catabasis Pharmaceuticals Inc. CATB 12/31/2019 -0.62 -0.55 +0.06 (-10.57%)
Daseke Inc. DSKE 12/31/2019 -0.20 -0.31 -0.11 (52.46%)
Deutsche Post AG ADR DPSGY 12/31/2019 0.76 0.79 +0.04 (4.84%)
Calavo Growers Inc. CVGW 1/31/2020 0.52 0.07 -0.45 (-86.54%)
Sutter Rock Capital Corp. SSSS 12/31/2019 0.20 0.12 -0.08 (-40.00%)
Workhorse Group Inc. WKHS 12/31/2019 -0.11 -0.11 Met
Nano Dimension Ltd. ADR NNDM 12/31/2019 -0.70 -0.35 +0.35 (-50.00%)
York Water Co. YORW 12/31/2019 0.30 0.26 -0.04 (-13.33%)
Trillium Therapeutics Inc. TRIL 12/31/2019 -0.22 -0.30 -0.08 (38.37%)
Principia Biopharma Inc. PRNB 12/31/2019 -0.78 -0.80 -0.02 (2.56%)
Protagonist Therapeutics Inc. PTGX 12/31/2019 -0.65 -0.63 +0.02 (-2.78%)
Satsuma Pharmaceuticals Inc. STSA 12/31/2019 -0.81 -0.62 +0.19 (-22.98%)
ChromaDex Corp. CDXC 12/31/2019 -0.11 -0.11 0.00 (1.85%)
DermTech Inc. DMTK 12/31/2019 -0.40 -0.43 -0.03 (7.50%)
Aspen Group Inc. ASPU 1/31/2020 -0.05 -0.12 -0.07 (122.22%)
NuCana PLC ADR NCNA 12/31/2019 0.00 0.00 0.00 (48.15%)
Aptose Biosciences Inc. APTO 12/31/2019 -0.13 -0.13 +0.00 (-2.14%)
BBX Capital Corp. Cl B BBXTB 12/31/2019 0.02 0.06 +0.05 (300.00%)
BBX Capital Corp. Cl A BBX 12/31/2019 0.02 0.06 +0.05 (300.00%)
ChemoCentryx Inc. CCXI 12/31/2019 -0.26 -0.26 +0.00 (-0.45%)
Fulgent Genetics Inc. FLGT 12/31/2019 0.02 0.04 +0.02 (102.93%)
Resonant Inc. RESN 12/31/2019 -0.19 -0.19 0.00 (1.39%)
Vivint Solar Inc. VSLR 12/31/2019 -0.33 -0.27 +0.06 (-18.18%)
TransAct Technologies Inc. TACT 12/31/2019 0.03 -0.12 -0.15 (-509.06%)
PetIQ Inc. Cl A PETQ 12/31/2019 0.06 0.00 -0.06 (-102.25%)
Turtle Beach Corp. HEAR 12/31/2019 0.73 0.83 +0.10 (14.33%)
Castle Biosciences Inc. CSTL 12/31/2019 -0.16 0.11 +0.27 (-169.84%)
Clean Energy Fuels Corp. CLNE 12/31/2019 0.23 0.21 -0.02 (-8.70%)
American Public Education Inc. APEI 12/31/2019 0.38 0.37 -0.01 (-1.33%)
Sunesis Pharmaceuticals Inc. SNSS 12/31/2019 -0.07 -0.05 +0.02 (-31.03%)
Ra Medical Systems Inc. RMED 12/31/2019 -1.02 -0.72 +0.30 (-29.41%)
Korn Ferry KFY 1/31/2020 0.73 0.75 +0.02 (2.27%)
Avid Bioservices Inc. CDMO 1/31/2020 -0.04 -0.06 -0.02 (57.89%)
Cloudera Inc. CLDR 1/31/2020 -0.03 0.04 +0.07 (-232.83%)
Alaska Communications Systems Group Inc. ALSK 12/31/2019 0.03 0.05 +0.02 (66.67%)
Constellation Pharmaceuticals Inc. CNST 12/31/2019 -0.68 -0.69 -0.01 (0.95%)
Information Services Group Inc. III 12/31/2019 0.03 0.04 +0.01 (23.08%)
Loma Negra Compania Industrial Argentina S.A. ADR LOMA 12/31/2019 0.23 0.03 -0.20 (-87.83%)
Proteostasis Therapeutics Inc. PTI 12/31/2019 -0.29 -0.23 +0.06 (-20.00%)
Key Energy Services Inc. KEGXD 12/31/2019 -72.75 -52.25 +20.50 (-28.18%)
NexTier Oilfield Solutions Inc. NEX 12/31/2019 -0.22 -0.09 +0.13 (-59.02%)
BlueLinx Holdings Inc. BXC 12/31/2019 0.54 -1.51 -2.05 (-379.58%)
Infrastructure & Energy Alternatives Inc. IEA 12/31/2019 0.20 0.31 +0.11 (55.00%)
Wrap Technologies Inc. WRTC 12/31/2019 -0.08 -0.09 -0.02 (20.00%)
Pampa Energia S.A. ADR PAM 12/31/2019 -0.10 0.27 +0.37 (-381.77%)
Company Name Symbol Fiscal Quarter EPS Forecast EPS Actual Surprise
Torm PLC TRMD 12/31/2019 0.38 0.37 -0.01 (-2.63%)
Knorr-Bremse AG ADR KNRRY 12/31/2019 0.26 0.31 +0.05 (20.35%)
Central Puerto S.A. ADR CEPU 12/31/2019 0.32 0.24 -0.07 (-23.39%)
Neonode Inc. NEON 12/31/2019 -0.15 -0.27 -0.12 (80.00%)
Hannover Rueck SE ADR HVRRY 12/31/2019 1.38 1.31 -0.07 (-4.84%)
adidas AG ADR ADDYY 12/31/2019 0.53 0.53 0.00 (-0.80%)
Cablevision Holding S.A. ADR CVHSY 12/31/2019 -0.05 -0.05 Met
AquaBounty Technologies Inc. AQB 12/31/2019 -0.13 -0.15 -0.02 (15.38%)
ADOMANI Inc. ADOM 12/31/2019 -0.02 N/A N/A
Daqo New Energy Corp. ADR DQ 12/31/2019 0.91 1.41 +0.50 (54.95%)
Pinduoduo Inc. ADR PDD 12/31/2019 -1.88 -1.52 +0.36 (-19.17%)
36Kr Holdings Inc. ADR KRKR 12/31/2019 0.09 0.03 -0.06 (-66.67%)
Xeris Pharmaceuticals Inc. XERS 12/31/2019 -1.13 -1.23 -0.10 (8.47%)
Cerecor Inc. CERC 12/31/2019 -0.03 0.03 +0.06 (-209.09%)
Build-A-Bear Workshop Inc. BBW 1/31/2020 0.28 0.42 +0.15 (52.73%)
Express Inc. EXPR 1/31/2020 0.18 0.19 +0.01 (2.73%)
United Natural Foods Inc. UNFI 1/31/2020 0.28 0.32 +0.04 (16.21%)
Liquidia Technologies Inc. LQDA 12/31/2019 -0.63 -0.72 -0.09 (14.29%)
Ferrellgas Partners L.P. FGPR 1/31/2020 0.41 0.49 +0.08 (18.34%)
Meet Group Inc. MEET 12/31/2019 0.07 0.07 Met
Lifetime Brands Inc. LCUT 12/31/2019 0.79 0.99 +0.21 (26.11%)
Ovid Therapeutics Inc. OVID 12/31/2019 -0.41 -0.35 +0.06 (-14.42%)
Rubicon Minerals Corp. RBYCF 12/31/2019 -0.01 -0.05 -0.04 (244.35%)
Inspired Entertainment Inc. INSE 12/31/2019 -0.40 -0.58 -0.18 (44.24%)
Vera Bradley Inc. VRA 1/31/2020 0.52 0.42 -0.10 (-19.23%)
SCYNEXIS Inc. SCYX 12/31/2019 -0.15 -0.22 -0.07 (50.00%)
Millendo Therapeutics Inc. MLND 12/31/2019 -0.81 -0.86 -0.05 (6.01%)
Sonim Technologies Inc. SONM 12/31/2019 -0.19 -0.41 -0.22 (119.64%)
INmune Bio Inc. INMB 12/31/2019 -0.25 -0.36 -0.11 (44.00%)
Gritstone Oncology Inc. GRTS 12/31/2019 -0.71 -0.77 -0.06 (8.02%)
Communications Systems Inc. JCS 12/31/2019 0.12 0.18 +0.06 (50.00%)
Telecom Italia S.p.A. ADR TIAIY 12/31/2019 0.21 0.10 -0.12 (-55.29%)
Telecom Italia S.p.A. ADR TIIAY 12/31/2019 0.21 0.10 -0.12 (-55.29%)
Aqua Metals Inc. AQMS 12/31/2019 -0.15 -0.10 +0.05 (-33.33%)
Limoneira Co. LMNR 1/31/2020 -0.20 -0.30 -0.10 (51.90%)
Hudson Ltd. Cl A HUD 12/31/2019 0.07 0.08 +0.01 (16.84%)
Arcturus Therapeutics Holdings Inc. ARCT 12/31/2019 -0.53 -0.76 -0.23 (42.63%)
Monarch Casino & Resort Inc. MCRI 12/31/2019 0.39 0.33 -0.06 (-14.38%)
Del Taco Restaurants Inc. TACO 12/31/2019 0.18 0.18 +0.01 (2.86%)
Verastem Inc. VSTM 12/31/2019 -0.46 -0.51 -0.06 (12.09%)
PDL BioPharma Inc. PDLI 12/31/2019 0.05 -0.48 -0.53 (-1060.00%)
ZAGG Inc. ZAGG 12/31/2019 1.01 0.85 -0.16 (-15.84%)
Clearside Biomedical Inc. CLSD 12/31/2019 -0.07 -0.07 +0.00 (-4.55%)
MicroVision Inc. MVIS 12/31/2019 -0.03 -0.03 Met
Unity Biotechnology Inc. UBX 12/31/2019 -0.56 -0.39 +0.17 (-30.15%)
Miragen Therapeutics Inc. MGEN 12/31/2019 -0.25 -0.31 -0.06 (23.02%)
Navidea Biopharmaceuticals Inc. NAVB 12/31/2019 -0.15 -0.15 -0.01 (3.45%)
Intellicheck Inc. IDN 12/31/2019 -0.03 0.01 +0.04 (-133.33%)
Pfenex Inc. PFNX 12/31/2019 0.16 0.30 +0.14 (90.48%)
Sientra Inc. SIEN 12/31/2019 -0.43 -0.41 +0.02 (-3.69%)
Farmland Partners Inc. FPI 12/31/2019 0.14 0.09 -0.05 (-34.15%)
Ideal Power Inc. IPWR 12/31/2019 -1.05 -0.36 +0.69 (-65.71%)
Entasis Therapeutics Holdings Ltd. ETTX 12/31/2019 -0.65 -1.05 -0.40 (61.54%)
Concrete Pumping Holdings Inc. BBCP 1/31/2020 -0.03 -0.06 -0.03 (118.18%)
Kingstone Cos. Inc. KINS 12/31/2019 0.05 0.07 +0.03 (55.56%)
Calithera Biosciences Inc. CALA 12/31/2019 -0.37 -0.39 -0.02 (4.84%)
Dynavax Technologies Corp. DVAX 12/31/2019 -0.34 -0.44 -0.10 (28.16%)
Hanger Inc. HNGR 12/31/2019 0.45 0.45 +0.01 (1.12%)
Kronos Worldwide Inc. KRO 12/31/2019 0.13 0.08 -0.05 (-37.51%)
Target Hospitality Corp. TH 12/31/2019 0.08 0.07 -0.01 (-11.02%)
Semtech Corp. SMTC 1/31/2020 0.35 0.40 +0.05 (13.71%)
Allied Motion Technologies Inc. AMOT 12/31/2019 0.31 0.37 +0.06 (18.09%)
Rosetta Stone Inc. RST 12/31/2019 -0.33 -0.28 +0.05 (-15.79%)
Novavax Inc. NVAX 12/31/2019 -1.06 -1.13 -0.07 (6.46%)
Earthstone Energy Inc. Cl A ESTE 12/31/2019 0.29 0.28 -0.01 (-3.45%)
Profire Energy Inc. PFIE 12/31/2019 0.02 -0.03 -0.05 (-280.00%)
NL Industries Inc. NL 12/31/2019 0.11 0.13 +0.02 (18.18%)
Inseego Corp. INSG 12/31/2019 -0.08 -0.10 -0.02 (31.58%)
Park-Ohio Holdings Corp. PKOH 12/31/2019 1.00 0.65 -0.35 (-35.00%)
BioLife Solutions Inc. BLFS 12/31/2019 -0.02 0.02 +0.04 (-212.50%)
Atreca Inc. Cl A BCEL 12/31/2019 -0.64 -0.72 -0.08 (13.21%)
Aquestive Therapeutics Inc. AQST 12/31/2019 -0.39 -0.48 -0.10 (24.68%)
Ready Capital Corp. RC 12/31/2019 0.41 0.43 +0.02 (5.99%)
Conatus Pharmaceuticals Inc. CNAT 12/31/2019 -0.07 -0.08 -0.01 (14.29%)
Chaparral Energy Inc. CHAP 12/31/2019 0.20 0.28 +0.08 (40.00%)
MeiraGTx Holdings PLC MGTX 12/31/2019 -0.52 -0.10 +0.42 (-80.58%)
CRH Medical Corp. CRHM 12/31/2019 0.04 0.02 -0.02 (-51.93%)
Invesque Inc. MHIVF 12/31/2019 0.24 N/A N/A
Alexco Resource Corp. AXU 12/31/2019 -0.01 -0.04 -0.04 (472.67%)
Wheaton Precious Metals Corp. WPM 12/31/2019 0.17 0.17 +0.00 (0.87%)
Fuel Tech Inc. FTEK 12/31/2019 -0.06 -0.18 -0.12 (200.00%)
Ampco-Pittsburgh Corp. AP 12/31/2019 -0.02 0.25 +0.27 (-1350.00%)
Craft Brew Alliance Inc. BREW 12/31/2019 -0.06 -0.36 -0.30 (541.25%)
Zealand Pharma A/S ADR ZEAL 12/31/2019 -0.22 -0.73 -0.51 (230.19%)
Knot Offshore Partners LP KNOP 12/31/2019 0.52 0.73 +0.21 (39.49%)
Talos Energy Inc. TALO 12/31/2019 0.52 1.31 +0.79 (150.15%)
Pacific Drilling S.A. PACD 12/31/2019 -2.46 -4.11 -1.65 (67.40%)
Dorel Industries Inc. Cl B DIIBF 12/31/2019 0.04 0.07 +0.03 (75.00%)
Fortuna Silver Mines Inc. FSM 12/31/2019 0.06 0.07 +0.01 (18.76%)
RWE AG ADR RWEOY 12/31/2019 0.39 0.55 +0.16 (40.76%)
58.com Inc. ADR WUBA 12/31/2019 0.71 2.47 +1.76 (247.49%)
Company Name Symbol Fiscal Quarter EPS Forecast EPS Actual Surprise
WPT Industrial Real Estate Investment Trust WPTIF 12/31/2019 0.23 0.42 +0.19 (81.30%)
Ayala Corp. ADR AYALY 12/31/2019 0.31 0.31 Met
Eurobank Ergasias S.A. ADR EGFEY 12/31/2019 0.01 0.01 Met
CooTek (Cayman) Inc. ADR CTK 12/31/2019 -0.20 -0.10 +0.10 (-50.00%)
MOGU Inc. ADR MOGU 12/31/2019 -0.96 -14.97 -14.01 (1459.38%)
Nesco Holdings Inc. Cl A NSCO 12/31/2019 0.08 0.06 -0.02 (-24.31%)
Radnet Inc. RDNT 12/31/2019 0.15 0.21 +0.06 (43.18%)
Apollo Medical Holdings Inc. AMEH 12/31/2019 0.20 0.18 -0.02 (-10.00%)
Pieris Pharmaceuticals Inc. PIRS 12/31/2019 -0.11 -0.07 +0.05 (-40.91%)
Superior Drilling Products Inc. SDPI 12/31/2019 0.00 0.00 N/A
BEST Inc. ADR BEST 12/31/2019 0.36 0.09 -0.27 (-74.05%)
Iterum Therapeutics PLC ITRM 12/31/2019 -1.66 -1.59 +0.06 (-3.93%)
Genesco Inc. GCO 1/31/2020 2.74 3.09 +0.35 (12.61%)
Party City Holdco Inc. PRTY 12/31/2019 0.88 0.51 -0.37 (-42.18%)
Dollar General Corp. DG 1/31/2020 2.01 2.10 +0.09 (4.41%)
BioLine RX Ltd. ADR BLRX 12/31/2019 -0.66 -0.94 -0.28 (42.42%)
Avadel Pharmaceuticals PLC ADR AVDL 12/31/2019 -0.26 -0.07 +0.19 (-73.08%)
Rubius Therapeutics Inc. RUBY 12/31/2019 -0.64 -0.56 +0.08 (-12.50%)
Solid Biosciences Inc. SLDB 12/31/2019 -0.61 -0.63 -0.02 (3.96%)
Lizhi Inc. ADR LIZI 12/31/2019 -0.11 -0.17 -0.06 (50.97%)
PolarityTE Inc. PTE 10/31/2019 -0.85 -0.73 +0.12 (-14.37%)
Galmed Pharmaceuticals Ltd. GLMD 12/31/2019 -0.35 -0.39 -0.04 (10.64%)
Lexicon Pharmaceuticals Inc. LXRX 12/31/2019 -0.77 -0.48 +0.29 (-37.78%)
Axsome Therapeutics Inc. AXSM 12/31/2019 -0.48 -0.71 -0.23 (47.92%)
Aldeyra Therapeutics Inc. ALDX 12/31/2019 -0.71 -0.48 +0.23 (-32.77%)
Trevena Inc. TRVN 12/31/2019 -0.09 -0.07 +0.02 (-17.65%)
Select Interior Concepts Inc. Cl A SIC 12/31/2019 0.07 0.13 +0.06 (85.71%)
Provention Bio Inc. PRVB 12/31/2019 -0.24 -0.22 +0.02 (-8.33%)
Corbus Pharmaceuticals Holdings Inc. CRBP 12/31/2019 -0.36 -0.41 -0.05 (14.53%)
Northern Oil & Gas Inc. NOG 12/31/2019 0.07 0.05 -0.02 (-28.57%)
Tetraphase Pharmaceuticals Inc. TTPH 12/31/2019 -5.64 -2.75 +2.89 (-51.24%)
AstroNova Inc. ALOT 1/31/2020 0.03 -0.19 -0.22 (-733.33%)
Tupperware Brands Corp. TUP 12/31/2019 -0.42 -1.47 -1.05 (250.02%)
Spartan Motors Inc. SPAR 12/31/2019 0.36 0.47 +0.11 (31.78%)
Agenus Inc. AGEN 12/31/2019 -0.38 -0.22 +0.16 (-42.11%)
resTORbio Inc. TORC 12/31/2019 -0.63 -0.79 -0.16 (26.06%)
Idera Pharmaceuticals Inc. IDRA 12/31/2019 -0.35 -1.76 -1.41 (400.47%)
PowerFleet Inc. PWFL 12/31/2019 0.06 0.00 -0.06 (-96.54%)
GTY Technology Holdings Inc. GTYH 12/31/2019 -0.07 -0.70 -0.63 (840.70%)
X4 Pharmaceuticals Inc. XFOR 12/31/2019 -0.83 -0.66 +0.17 (-20.02%)
Genie Energy Ltd. GNE 12/31/2019 0.19 0.00 -0.19 (-100.00%)
Azul S.A. ADR AZUL 12/31/2019 3.74 5.51 +1.77 (47.36%)
Evofem Biosciences Inc. EVFM 12/31/2019 -0.29 -0.27 +0.02 (-6.25%)
eXp World Holdings Inc. EXPI 12/31/2019 -0.04 0.01 +0.05 (-128.57%)
Selecta Biosciences Inc. SELB 12/31/2019 -0.21 -0.28 -0.07 (33.33%)
Aemetis Inc. AMTX 12/31/2019 -0.33 -0.33 Met
Protalix BioTherapeutics Inc. PLX 12/31/2019 -0.63 0.02 +0.65 (-103.17%)
Celsius Holdings Inc. CELH 12/31/2019 -0.01 -0.02 -0.01 (100.00%)
BG Staffing Inc. BGSF 12/31/2019 0.33 0.37 +0.05 (13.85%)
Full House Resorts Inc. FLL 12/31/2019 -0.04 -0.15 -0.11 (252.18%)
Checkpoint Therapeutics Inc. CKPT 12/31/2019 -0.21 -0.22 -0.01 (3.13%)
Tecogen Inc. TGEN 12/31/2019 0.00 -0.04 N/A
Quest Resource Holding Corp. QRHC 12/31/2019 0.01 0.00 -0.01 (-100.00%)
Volt Information Sciences Inc. VOLT 1/31/2020 -0.26 -0.44 -0.18 (69.73%)
BRT Apartments Corp. BRT 9/30/2019 -0.30 N/A N/A
CymaBay Therapeutics Inc. CBAY 12/31/2019 -0.39 -0.43 -0.04 (10.54%)
Kezar Life Sciences Inc. KZR 12/31/2019 -0.55 -0.50 +0.05 (-8.26%)
Flexion Therapeutics Inc. FLXN 12/31/2019 -0.95 -0.88 +0.07 (-7.58%)
Adverum Biotechnologies Inc. ADVM 12/31/2019 -0.29 -0.29 +0.00 (-1.14%)
Asure Software Inc. ASUR 12/31/2019 0.06 -0.10 -0.16 (-261.29%)
Ocular Therapeutix Inc. OCUL 12/31/2019 -0.43 -0.53 -0.10 (23.26%)
Marker Therapeutics Inc. MRKR 12/31/2019 -0.13 -0.11 +0.02 (-12.70%)
Nabriva Therapeutics PLC NBRV 12/31/2019 -0.33 -0.29 +0.04 (-12.65%)
Merus N.V. MRUS 12/31/2019 -0.44 -0.33 +0.11 (-25.82%)
BioDelivery Sciences International Inc. BDSI 12/31/2019 0.01 0.00 -0.01 (-139.32%)
ViewRay Inc. VRAY 12/31/2019 -0.25 -0.31 -0.06 (26.29%)
Y-mAbs Therapeutics Inc. YMAB 12/31/2019 -0.66 -0.60 +0.06 (-9.68%)
RF Industries Ltd. RFIL 1/31/2020 0.02 0.02 Met
Oracle Corp. ORCL 2/29/2020 0.96 0.97 +0.01 (1.28%)
Mirum Pharmaceuticals Inc. MIRM 12/31/2019 -0.85 -0.79 +0.06 (-7.09%)
Ulta Beauty Inc. ULTA 1/31/2020 3.73 3.89 +0.16 (4.31%)
PFSweb Inc. PFSW 12/31/2019 0.08 0.15 +0.07 (85.56%)
Rockwell Medical Inc. RMTI 12/31/2019 -0.12 -0.11 +0.01 (-10.81%)
Helius Medical Technologies Inc. HSDT 12/31/2019 -0.21 -0.19 +0.02 (-9.52%)
Scholar Rock Holding Corp. SRRK 12/31/2019 -0.55 -0.40 +0.15 (-27.80%)
Harte-Hanks Inc. HHS 12/31/2019 -0.11 -0.34 -0.23 (211.03%)
Inovio Pharmaceuticals Inc. INO 12/31/2019 -0.24 -0.38 -0.14 (61.21%)
Marrone Bio Innovations Inc. MBII 12/31/2019 -0.06 -0.08 -0.02 (42.86%)
Senseonics Holdings Inc. SENS 12/31/2019 -0.16 -0.18 -0.02 (12.51%)
Myomo Inc. MYO 12/31/2019 -4.59 -4.81 -0.22 (4.72%)
Clipper Realty Inc. CLPR 12/31/2019 -0.36 -0.05 +0.31 (-86.11%)
Catasys Inc. CATS 12/31/2019 -0.34 -0.52 -0.19 (55.22%)
Dynagas LNG Partners LP DLNG 12/31/2019 0.09 0.08 -0.01 (-11.11%)
CNS Pharmaceuticals Inc. CNSP 12/31/2019 -0.03 -0.17 -0.14 (466.67%)
DocuSign Inc. DOCU 1/31/2020 0.05 0.12 +0.07 (121.79%)
Zumiez Inc. ZUMZ 1/31/2020 1.36 1.48 +0.12 (8.82%)
Adobe Inc. ADBE 2/29/2020 2.23 2.27 +0.04 (1.89%)
Broadmark Realty Capital Inc. BRMK 12/31/2019 0.24 0.21 -0.03 (-12.50%)
Mid-Con Energy Partners L.P. MCEP 12/31/2019 -0.01 -0.06 -0.05 (516.06%)
Goosehead Insurance Inc. Cl A GSHD 12/31/2019 0.06 0.13 +0.07 (104.29%)
CTI BioPharma Corp. CTIC 12/31/2019 -0.23 -0.14 +0.09 (-37.78%)
Bellicum Pharmaceuticals Inc. BLCM 12/31/2019 -4.34 -5.82 -1.49 (34.26%)
ADMA Biologics Inc. ADMA 12/31/2019 -0.17 -0.18 -0.01 (3.60%)
Startek Inc. SRT 12/31/2019 0.02 -0.14 -0.16 (-700.01%)
Harpoon Therapeutics Inc. HARP 12/31/2019 -0.53 -0.58 -0.05 (9.45%)
Geron Corp. GERN 12/31/2019 -0.20 -0.15 +0.05 (-26.47%)
Salem Media Group Inc. SALM 12/31/2019 0.01 -0.07 -0.07 (-1425.04%)
Savara Inc. SVRA 12/31/2019 -0.41 -0.72 -0.31 (75.61%)
Identiv Inc. INVE 12/31/2019 -0.13 -0.12 +0.01 (-6.49%)
AgroFresh Solutions Inc. AGFS 12/31/2019 0.14 -0.60 -0.74 (-527.65%)
Everspin Technologies Inc. MRAM 12/31/2019 -0.17 -0.17 -0.01 (3.03%)
Par Technology Corp. PAR 12/31/2019 -0.20 -0.35 -0.15 (75.00%)
Uniti Group Inc. UNIT 12/31/2019 0.01 -0.06 -0.07 (-520.58%)
Iridex Corp. IRIX 12/31/2019 -0.16 -0.11 +0.05 (-29.03%)
Amphastar Pharmaceuticals Inc. AMPH 12/31/2019 0.08 0.07 0.00 (-6.67%)
7073彩票注册en Entertainment Inc. GDEN 12/31/2019 -0.26 -0.28 -0.02 (8.97%)
IMPAC Mortgage Holdings Inc. IMH 12/31/2019 0.26 0.08 -0.18 (-69.23%)
Red Violet Inc. RDVT 12/31/2019 0.06 N/A N/A
Super League Gaming Inc. SLGG 12/31/2019 -0.37 -0.44 -0.07 (18.12%)
Medallia Inc. MDLA 1/31/2020 -0.03 0.00 +0.03 (-109.22%)
Chembio Diagnostics Inc. CEMI 12/31/2019 -0.25 -0.23 +0.02 (-6.12%)
Rimini Street Inc. RMNI 12/31/2019 -0.09 0.05 +0.14 (-155.98%)
Homology Medicines Inc. FIXX 12/31/2019 -0.68 -0.55 +0.13 (-19.46%)
RISE Education Cayman Ltd. ADR REDU 12/31/2019 0.08 0.13 +0.05 (64.49%)
Caleres Inc. CAL 1/31/2020 0.36 0.34 -0.02 (-6.21%)
Zuora Inc. Cl A ZUO 1/31/2020 -0.10 -0.09 +0.01 (-5.97%)
Reed's Inc. REED 12/31/2019 -0.08 -0.09 -0.01 (12.50%)
Fluent Inc. FLNT 12/31/2019 -0.01 0.08 +0.09 (-900.00%)
Foresight Autonomous Holdings Ltd. ADR FRSX 12/31/2019 -0.12 N/A N/A
Gap Inc. GPS 1/31/2020 0.41 0.58 +0.17 (41.92%)
Slack Technologies Inc. WORK 1/31/2020 -0.06 -0.04 +0.02 (-32.43%)
Broadcom Inc. AVGO 1/31/2020 5.34 5.25 -0.09 (-1.61%)
Amyris Inc. AMRS 12/31/2019 -0.28 -0.65 -0.37 (132.14%)
ExOne Co. XONE 12/31/2019 0.00 -0.12 -0.12 (5785.24%)
Valhi Inc. VHI 12/31/2019 0.04 0.03 -0.01 (-25.00%)
Synlogic Inc. SYBX 12/31/2019 -0.44 -0.37 +0.07 (-15.63%)
CorePoint Lodging Inc. CPLG 12/31/2019 -0.87 -2.73 -1.86 (214.92%)
SpringWorks Therapeutics Inc. SWTX 12/31/2019 -0.36 -0.39 -0.04 (9.86%)
Molecular Templates Inc. MTEM 12/31/2019 -0.36 -0.41 -0.05 (12.64%)
Regulus Therapeutics Inc. RGLS 12/31/2019 -0.24 -0.23 +0.01 (-4.17%)
Mobile TeleSystems PJSC ADR MBT 12/31/2019 17.13 17.13 Met
NextCure Inc. NXTC 12/31/2019 -0.45 -0.44 +0.02 (-4.25%)
China Biologic Products Inc. CBPO 12/31/2019 0.70 0.53 -0.17 (-24.29%)
BR Malls Participacoes S.A. ADR BRMSY 12/31/2019 0.09 0.09 0.00 (-2.16%)
BR Malls Participacoes S.A. GDR BRMLL 12/31/2019 0.09 0.09 0.00 (-2.16%)
Tilly's Inc. TLYS 1/31/2020 0.20 0.21 +0.01 (6.33%)
Adecoagro S.A. AGRO 12/31/2019 0.25 N/A N/A
Team Inc. TISI 12/31/2019 0.02 -0.08 -0.10 (-422.87%)
Celcuity Inc. CELC 12/31/2019 -0.19 -0.14 +0.05 (-24.32%)
Lineage Cell Therapeutics Inc. LCTX 12/31/2019 -0.05 -0.03 +0.02 (-42.31%)
Neoleukin Therapeutics Inc. NLTX 12/31/2019 -0.28 -0.23 +0.05 (-18.82%)
LAIX Inc. ADR LAIX 12/31/2019 -2.84 -4.15 -1.32 (46.38%)
NN Inc. NNBR 12/31/2019 0.14 0.14 +0.00 (1.45%)
Diversified Royalty Corp. BEVFF 12/31/2019 0.03 0.04 +0.00 (6.13%)
SMTC Corp. SMTX 12/31/2019 0.06 0.02 -0.04 (-72.99%)
Company Name Symbol Fiscal Quarter EPS Forecast EPS Actual Surprise
Leonardo S.p.A. ADR FINMY 12/31/2019 0.21 0.34 +0.13 (58.88%)
SharpSpring Inc. SHSP 12/31/2019 -0.19 -0.19 Met
Creative Realities Inc. CREX 12/31/2019 -0.04 N/A N/A
Huami Corp. ADR HMI 12/31/2019 2.85 0.80 -2.05 (-71.94%)
Century Casinos Inc. CNTY 12/31/2019 0.05 -0.67 -0.72 (-1388.05%)
Harvest Capital Credit Corp. HCAP 12/31/2019 0.20 0.19 -0.01 (-2.56%)
JinkoSolar Holding Co. Ltd. ADR JKS 12/31/2019 1.45 1.40 -0.05 (-3.41%)
Citi Trends Inc. CTRN 1/31/2020 0.62 0.88 +0.26 (41.94%)
Buckle Inc. BKE 1/31/2020 0.87 0.96 +0.09 (9.91%)
PLx Pharma Inc. PLXP 12/31/2019 -0.48 -0.25 +0.23 (-47.92%)
Verrica Pharmaceuticals Inc. VRCA 12/31/2019 -0.30 -0.31 -0.02 (5.08%)
Gogo Inc. GOGO 12/31/2019 -0.46 -0.28 +0.18 (-38.88%)
Intertape Polymer Group Inc. ITPOF 12/31/2019 0.26 0.23 -0.03 (-10.56%)
Applied Therapeutics Inc. APLT 12/31/2019 -0.65 -0.74 -0.09 (14.71%)
Kirkland's Inc. KIRK 1/31/2020 0.67 0.59 -0.08 (-11.94%)
Headhunter Group PLC ADR HHR 12/31/2019 11.57 12.98 +1.41 (12.19%)
Assicurazioni Generali S.p.A. ADR ARZGY 12/31/2019 0.23 0.22 0.00 (-1.56%)
Intec Pharma Ltd. NTEC 12/31/2019 -0.17 -0.19 -0.02 (14.00%)
Neos Therapeutics Inc. NEOS 12/31/2019 -0.03 -0.07 -0.04 (115.38%)
Achieve Life Sciences Inc. ACHV 12/31/2019 -0.29 -0.30 -0.01 (3.45%)
Eiger BioPharmaceuticals Inc. EIGR 12/31/2019 -0.39 -0.63 -0.25 (64.78%)
OFS Capital Corp. OFS 12/31/2019 0.35 0.34 -0.01 (-2.86%)
Sequential Brands Group Inc. SQBG 12/31/2019 0.07 -0.14 -0.21 (-300.00%)
Lithium Americas Corp. LAC 12/31/2019 -0.12 -0.12 Met
Overstock.com Inc. OSTK 12/31/2019 -0.34 -0.73 -0.39 (114.71%)
Lipocine Inc. LPCN 12/31/2019 -0.10 -0.10 Met
Zosano Pharma Corp. ZSAN 12/31/2019 -0.45 -0.46 -0.02 (3.37%)
Jabil Inc. JBL 2/29/2020 0.65 0.50 -0.15 (-23.13%)
Progenics Pharmaceuticals Inc. PGNX 12/31/2019 -0.25 -0.13 +0.12 (-48.00%)
J. Alexander's Holdings Inc. JAX 12/31/2019 0.22 0.14 -0.08 (-36.36%)
Advaxis Inc. ADXS 1/31/2020 -0.19 -0.15 +0.04 (-21.05%)
Crawford United Corp. CRAWA 12/31/2019 0.49 0.51 +0.02 (4.08%)
ReneSola Ltd. ADR SOL 12/31/2019 0.02 0.09 +0.07 (350.00%)
Harrow Health Inc. HROW 12/31/2019 0.01 0.10 +0.10 (1900.00%)
One Liberty Properties Inc. OLP 12/31/2019 0.19 0.23 +0.04 (21.05%)
Boston Omaha Corp. BOMN 12/31/2019 -0.09 0.17 +0.26 (-288.89%)
Stemline Therapeutics Inc. STML 12/31/2019 -0.35 -0.38 -0.03 (7.06%)
Company Name Symbol Fiscal Quarter EPS Forecast EPS Actual Surprise
Chiasma Inc. CHMA 12/31/2019 -0.23 N/A N/A
Oncternal Therapeutics Inc. ONCT 12/31/2019 -1.68 N/A N/A
Consolidated Water Co. Inc. CWCO 12/31/2019 0.15 N/A N/A
Exela Technologies Inc. XELA 12/31/2019 -0.15 N/A N/A
Weatherford International PLC WFTLF 12/31/2019 -0.45 N/A N/A
Establishment Labs Holdings Inc. ESTA 12/31/2019 -0.58 N/A N/A
Horizon Global Corp. HZN 12/31/2019 -0.44 N/A N/A
New Age Beverages Corp. NBEV 12/31/2019 -0.08 N/A N/A
Niu Technologies ADR NIU 12/31/2019 0.04 N/A N/A
Accel Entertainment Inc. ACEL 12/31/2019 0.10 N/A N/A
Townsquare Media Inc. Cl A TSQ 12/31/2019 0.25 N/A N/A
AcelRx Pharmaceuticals Inc. ACRX 12/31/2019 -0.20 N/A N/A
Capital Senior Living Corp. CSU 12/31/2019 -0.56 N/A N/A
Tredegar Corp. TG 12/31/2019 0.32 N/A N/A
Aerpio Pharmaceuticals Inc. ARPO 12/31/2019 -0.09 N/A N/A
Erytech Pharma ADR ERYP 12/31/2019 -0.88 N/A N/A
Great Panther Mining Ltd. GPL 12/31/2019 -0.03 N/A N/A
Ring Energy Inc. REI 12/31/2019 0.14 N/A N/A
Mountain Province Diamonds Inc. MPVDF 12/31/2019 -0.03 N/A N/A
American Renal Associates Holdings Inc. ARA 12/31/2019 -0.03 N/A N/A
HC2 Holdings Inc. HCHC 12/31/2019 -0.25 N/A N/A
CV Sciences Inc. CVSI 12/31/2019 -0.02 N/A N/A
Athersys Inc. ATHX 12/31/2019 -0.08 N/A N/A
Genesis Healthcare Inc. GEN 12/31/2019 -0.10 N/A N/A
Leaf Group Ltd. LEAF 12/31/2019 -0.11 N/A N/A
Pulse Biosciences Inc. PLSE 12/31/2019 -0.61 N/A N/A
Hunt Companies Finance Trust Inc. HCFT 12/31/2019 0.09 N/A N/A
Bloom Energy Corp. BE 12/31/2019 0.02 N/A N/A
InnerWorkings Inc. INWK 12/31/2019 0.04 N/A N/A
Apyx Medical Corp. APYX 12/31/2019 -0.19 N/A N/A
Tencent Music Entertainment Group ADR TME 12/31/2019 0.09 N/A N/A
Advanced Emissions Solutions Inc. ADES 12/31/2019 0.90 N/A N/A
Kindred Biosciences Inc. KIN 12/31/2019 -0.37 N/A N/A
TransEnterix Inc. TRXC 12/31/2019 -1.04 N/A N/A
Catalyst Pharmaceuticals Inc. CPRX 12/31/2019 0.10 N/A N/A
HUYA Inc. ADR HUYA 12/31/2019 0.68 N/A N/A
JOYY Inc. ADR YY 12/31/2019 6.35 N/A N/A
Repay Holdings Corp. RPAY 12/31/2019 0.11 N/A N/A
51job Inc. ADR JOBS 12/31/2019 7.22 N/A N/A
CorMedix Inc. CRMD 12/31/2019 -0.24 N/A N/A
ZTO Express (Cayman) Inc. ADR ZTO 12/31/2019 1.95 N/A N/A
Arco Platform Ltd. Cl A ARCE 12/31/2019 0.33 N/A N/A
HealthEquity Inc. HQY 1/31/2020 0.33 N/A N/A
Allied Esports Entertainment Inc. AESE 12/31/2019 -0.02 N/A N/A
Grupo Aval Acciones y Valores S.A. ADR AVAL 12/31/2019 0.20 N/A N/A
Company Name Symbol Fiscal Quarter EPS Forecast EPS Actual Surprise
Gevo Inc. GEVO 12/31/2019 -0.42 N/A N/A
Cathay Financial Holding Co. Ltd. GDR CHYFF 12/31/2019 0.22 N/A N/A
Cathay Financial Holding Co. Ltd. GDR 144A CHYYY 12/31/2019 0.22 N/A N/A
Lands' End Inc. LE 1/31/2020 0.78 N/A N/A
Designer Brands Inc. DBI 1/31/2020 -0.07 N/A N/A
McEwen Mining Inc. MUX 12/31/2019 -0.02 N/A N/A
DarioHealth Corp. DRIO 12/31/2019 -1.02 N/A N/A
Volkswagen AG ADR Pfd. VWAPY 12/31/2019 0.66 N/A N/A
Commercial Vehicle Group Inc. CVGI 12/31/2019 0.19 N/A N/A
HD Supply Holdings Inc. HDS 1/31/2020 0.56 N/A N/A
RumbleON Inc. Cl B RMBL 12/31/2019 -0.37 N/A N/A
Strata Skin Sciences Inc. SSKN 12/31/2019 -0.02 N/A N/A
Michaels Cos. Inc. MIK 1/31/2020 1.26 N/A N/A
Westport Fuel Systems Inc. WPRT 12/31/2019 0.01 N/A N/A
Performant Financial Corp. PFMT 12/31/2019 -0.01 N/A N/A
Bilibili Inc. ADR BILI 12/31/2019 -0.16 N/A N/A
China Distance Education Holdings Ltd. ADR DL 12/31/2019 -0.07 N/A N/A
MongoDB Inc. MDB 1/31/2020 -0.28 N/A N/A
XP Inc. Cl A XP 12/31/2019 0.10 N/A N/A
FedEx Corp. FDX 2/29/2020 1.53 N/A N/A
Company Name Symbol Fiscal Quarter EPS Forecast EPS Actual Surprise
Bayerische Motoren Werke AG ADR BMWYY 12/31/2019 0.83 N/A N/A
Summer Infant Inc. SUMR 12/31/2019 -0.01 N/A N/A
Tencent Holdings Ltd. ADR TCEHY 12/31/2019 0.34 N/A N/A
Guess? Inc. GES 1/31/2020 1.12 N/A N/A
General Mills Inc. GIS 2/29/2020 0.76 N/A N/A
IAA Inc. IAA 12/31/2019 0.35 N/A N/A
Arcos Dorados Holdings Inc. Cl A ARCO 12/31/2019 0.08 N/A N/A
Contura Energy Inc. CTRA 12/31/2019 -2.09 N/A N/A
Baozun Inc. ADR BZUN 12/31/2019 3.36 N/A N/A
Futu Holdings Ltd. ADR FUTU 12/31/2019 0.20 N/A N/A
NIO Inc. ADR NIO 12/31/2019 -1.85 N/A N/A
Turning Point Therapeutics Inc. TPTX 12/31/2019 -0.63 N/A N/A
ACM Research Inc. Cl A ACMR 12/31/2019 0.10 N/A N/A
Capricor Therapeutics Inc. CAPR 12/31/2019 -0.35 N/A N/A
Cumberland Pharmaceuticals Inc. CPIX 12/31/2019 -0.14 N/A N/A
Trip.com Group Ltd. ADR TCOM 12/31/2019 0.81 N/A N/A
Brickell Biotech Inc. BBI 12/31/2019 0.00 N/A N/A
Fanhua Inc. ADR FANH 12/31/2019 2.26 N/A N/A
Williams-Sonoma Inc. WSM 1/31/2020 2.05 N/A N/A
QAD Inc. Cl B QADB 1/31/2020 0.14 N/A N/A
QAD Inc. Cl A QADA 1/31/2020 0.14 N/A N/A
Five Below Inc. FIVE 1/31/2020 1.94 N/A N/A
Herman Miller Inc. MLHR 2/29/2020 0.70 N/A N/A
1Life Healthcare Inc. ONEM 12/31/2019 -0.14 N/A N/A
Tailored Brands Inc. TLRD 1/31/2020 -0.54 N/A N/A
MorphoSys AG ADR MOR 12/31/2019 -0.37 N/A N/A
Company Name Symbol Fiscal Quarter EPS Forecast EPS Actual Surprise
Fuchs Petrolub SE Pfd. ADR FUPBY 12/31/2019 0.10 N/A N/A
Vascular Biogenics Ltd. VBLT 12/31/2019 -0.13 N/A N/A
Destination XL Group Inc. DXLG 1/31/2020 -0.06 N/A N/A
Auris Medical Holding Ltd. EARS 12/31/2019 -1.60 N/A N/A
Children's Place Inc. PLCE 1/31/2020 1.57 N/A N/A
Commercial Metals Co. CMC 2/29/2020 0.52 N/A N/A
Deutsche Lufthansa AG ADR DLAKY 12/31/2019 0.68 N/A N/A
Accenture PLC Cl A ACN 2/29/2020 1.72 N/A N/A
HOOKIPA Pharma Inc. HOOK 12/31/2019 -0.47 N/A N/A
Energy Focus Inc. EFOI 12/31/2019 -0.08 N/A N/A
GDS Holdings Ltd. ADR GDS 12/31/2019 -0.13 N/A N/A
Wireless Telecom Group Inc. WTT 12/31/2019 0.01 N/A N/A
Momo Inc. ADR MOMO 12/31/2019 4.89 N/A N/A
DouYu International Holdings Ltd. ADR DOYU 12/31/2019 0.23 N/A N/A
Zai Lab Ltd. ADR ZLAB 12/31/2019 -0.63 N/A N/A
Duluth Holdings Inc. Cl B DLTH 1/31/2020 0.79 N/A N/A
Darden Restaurants Inc. DRI 2/29/2020 1.87 N/A N/A
Enerpac Tool Group Corp. Cl A EPAC 2/29/2020 0.12 N/A N/A
Lennar Corp. Cl A LEN 2/29/2020 0.85 N/A N/A
Lennar Corp. Cl B LEN.B 2/29/2020 0.85 N/A N/A
Lazydays Holdings Inc. LAZY 12/31/2019 -0.31 N/A N/A
Curis Inc. CRIS 12/31/2019 -0.20 N/A N/A
Biolase Inc. BIOL 12/31/2019 -0.08 N/A N/A
Viveve Medical Inc. VIVE 12/31/2019 -124.00 N/A N/A
RTW Retailwinds Inc. RTW 1/31/2020 0.04 N/A N/A
Ollie's Bargain Outlet Holdings Inc. OLLI 1/31/2020 0.76 N/A N/A
Cintas Corp. CTAS 2/29/2020 2.03 N/A N/A
Scholastic Corp. SCHL 2/29/2020 -0.61 N/A N/A
Braskem S/A ADR BAK 12/31/2019 -0.22 N/A N/A
Cyrela Brazil Realty S/A GDR 144A CYRAY 12/31/2019 0.09 N/A N/A
Company Name Symbol Fiscal Quarter EPS Forecast EPS Actual Surprise
Jiangsu Expressway Co. Ltd. ADR JEXYY 12/31/2019 0.38 N/A N/A
Jaguar Mining Inc. JAGGF 12/31/2019 0.00 N/A N/A
Tiffany & Co. TIF 1/31/2020 1.76 N/A N/A
Hibbett Sports Inc. HIBB 1/31/2020 0.62 N/A N/A
Turquoise Hill Resources Ltd. TRQ 12/31/2019 0.00 N/A N/A
Company Name Symbol Fiscal Quarter EPS Forecast EPS Actual Surprise
Anhui Conch Cement Co. Ltd. AHCHY 12/31/2019 1.28 N/A N/A
China Coal Energy Co. Ltd. ADR CCOZY 12/31/2019 0.32 N/A N/A
689彩票邀请码 7072彩票开户 7073彩票注册 963彩票开户 7073彩票网址 7073彩票地址 7073彩票登录 66顺彩票app 8炫彩彩票app 677彩票开户